Deepstep, Georgia
Current Conditions -  °F | °C
As of 9:35 AM on Friday 28 Nov 2014 (Local Time) from KOKZ Reporting Station
Clear Clear  
Wind Chill: 36°   Ceiling: Unl
Heat Index: 36°   Visibility: 10mi
Dew Point: 28°   Wind: 3mph
Humidity: 71%   Direction: 30°NNE
Pressure: 30.45"   Gusts: NA
Location:  33.0015°N, 82.8994°W
Report Text: KOKZ 281435Z AUTO 03003KT 10SM CLR 02/M02 A3045 RMK AO2 T00241023
Loading
Personal Weather Stations






























Interactive Weather Map New forecast layout! Learn more

10-Day Weather Forecast

Advertisements
Track Severe Weather on mobile